createdAt,value
2018-09-03T00:04:23.112Z,1017.2
2018-09-03T00:09:23.132Z,1017.1
2018-09-03T00:14:23.327Z,1017.1
2018-09-03T00:19:23.144Z,1017
2018-09-03T00:24:23.191Z,1017.1
2018-09-03T00:29:23.141Z,1017.1
2018-09-03T00:34:23.152Z,1017.1
2018-09-03T00:39:24.805Z,1017.1
2018-09-03T00:44:24.763Z,1017.2
2018-09-03T00:49:37.634Z,1017.2
2018-09-03T00:54:37.233Z,1017.3
2018-09-03T00:59:37.557Z,1017.3
2018-09-03T01:04:37.417Z,1017.3
2018-09-03T01:09:37.518Z,1017.1
2018-09-03T01:14:38.612Z,1017
2018-09-03T01:19:38.808Z,1017.1
2018-09-03T01:24:40.470Z,1017
2018-09-03T01:29:41.903Z,1016.8
2018-09-03T01:34:52.420Z,1016.7
2018-09-03T01:39:52.365Z,1016.7
2018-09-03T01:44:52.294Z,1016.7
2018-09-03T01:49:52.350Z,1016.6
2018-09-03T01:54:52.313Z,1016.7
2018-09-03T01:59:52.189Z,1016.6
2018-09-03T02:04:52.281Z,1016.6
2018-09-03T02:09:52.371Z,1016.7
2018-09-03T02:14:52.398Z,1016.7
2018-09-03T02:19:52.499Z,1016.7
2018-09-03T02:24:52.365Z,1016.7
2018-09-03T02:29:52.414Z,1016.7
2018-09-03T02:34:52.998Z,1016.5
2018-09-03T02:39:52.691Z,1016.4
2018-09-03T02:45:05.681Z,1016.4
2018-09-03T02:50:05.388Z,1016.3
2018-09-03T02:55:05.573Z,1016.2
2018-09-03T03:00:05.599Z,1016.2
2018-09-03T03:05:05.543Z,1016.1
2018-09-03T03:10:05.687Z,1016
2018-09-03T03:15:05.571Z,1016
2018-09-03T03:20:05.494Z,1016
2018-09-03T03:25:05.487Z,1016
2018-09-03T03:30:18.244Z,1015.9
2018-09-03T03:35:18.120Z,1015.9
2018-09-03T03:40:18.092Z,1015.9
2018-09-03T03:45:19.212Z,1015.9
2018-09-03T03:50:17.988Z,1016
2018-09-03T03:55:18.593Z,1015.9
2018-09-03T04:00:18.101Z,1016
2018-09-03T04:05:20.462Z,1016
2018-09-03T04:10:20.292Z,1016
2018-09-03T04:15:32.440Z,1015.9
2018-09-03T04:20:32.182Z,1016
2018-09-03T04:25:32.520Z,1015.8
2018-09-03T04:30:32.186Z,1015.8
2018-09-03T04:35:32.372Z,1015.9
2018-09-03T04:40:32.178Z,1016
2018-09-03T04:45:32.455Z,1016
2018-09-03T04:50:32.369Z,1015.9
2018-09-03T04:55:32.375Z,1015.8
2018-09-03T05:00:47.528Z,1015.9
2018-09-03T05:05:47.904Z,1015.9
2018-09-03T05:10:47.441Z,1015.9
2018-09-03T05:15:47.241Z,1016
2018-09-03T05:20:47.261Z,1016
2018-09-03T05:25:47.255Z,1016.1
2018-09-03T05:30:47.501Z,1016
2018-09-03T05:35:47.711Z,1015.9
2018-09-03T05:40:47.435Z,1015.9
2018-09-03T05:46:00.013Z,1015.9
2018-09-03T05:50:59.938Z,1015.8
2018-09-03T05:55:59.862Z,1015.8
2018-09-03T06:00:59.853Z,1015.9
2018-09-03T06:05:59.927Z,1015.8
2018-09-03T06:10:59.866Z,1015.8
2018-09-03T06:15:59.860Z,1015.9
2018-09-03T06:20:59.931Z,1015.9
2018-09-03T06:25:59.947Z,1015.8
2018-09-03T06:30:59.716Z,1015.8
2018-09-03T06:36:00.228Z,1015.7
2018-09-03T06:40:59.867Z,1015.6
2018-09-03T06:46:00.381Z,1015.5
2018-09-03T06:51:00.002Z,1015.6
2018-09-03T06:56:12.188Z,1015.5
2018-09-03T07:01:12.057Z,1015.5
2018-09-03T07:06:12.088Z,1015.6
2018-09-03T07:11:11.939Z,1015.7
2018-09-03T07:16:11.965Z,1015.7
2018-09-03T07:21:11.968Z,1015.7
2018-09-03T07:26:12.129Z,1015.7
2018-09-03T07:31:13.401Z,1015.6
2018-09-03T07:36:13.258Z,1015.6
2018-09-03T07:41:25.841Z,1015.5
2018-09-03T07:46:25.797Z,1015.6
2018-09-03T07:51:25.733Z,1015.5
2018-09-03T07:56:25.558Z,1015.7
2018-09-03T08:01:25.800Z,1015.6
2018-09-03T08:06:26.545Z,1015.6
2018-09-03T08:11:26.466Z,1015.5
2018-09-03T08:16:26.514Z,1015.4
2018-09-03T08:21:26.299Z,1015.4
2018-09-03T08:26:26.415Z,1015.5
2018-09-03T08:31:26.512Z,1015.6
2018-09-03T08:36:26.432Z,1015.7
2018-09-03T08:41:29.776Z,1015.7
2018-09-03T08:46:29.673Z,1015.6
2018-09-03T08:51:42.082Z,1015.8
2018-09-03T08:56:42.249Z,1015.8
2018-09-03T09:01:41.959Z,1015.7
2018-09-03T09:06:41.817Z,1015.6
2018-09-03T09:11:42.422Z,1015.6
2018-09-03T09:16:42.089Z,1015.4
2018-09-03T09:21:41.823Z,1015.3
2018-09-03T09:26:43.253Z,1015.5
2018-09-03T09:31:43.205Z,1015.5
2018-09-03T09:36:55.497Z,1015.6
2018-09-03T09:41:54.807Z,1015.4
2018-09-03T09:46:54.959Z,1015.5
2018-09-03T09:51:54.821Z,1015.4
2018-09-03T09:56:54.809Z,1015.4
2018-09-03T10:01:54.821Z,1015.4
2018-09-03T10:06:55.028Z,1015.3
2018-09-03T10:11:54.807Z,1015.2
2018-09-03T10:16:54.802Z,1015.3
2018-09-03T10:21:54.991Z,1015.1
2018-09-03T10:26:55.035Z,1015.1
2018-09-03T10:31:55.314Z,1015.2
2018-09-03T10:36:55.265Z,1015.1
2018-09-03T10:41:54.995Z,1015
2018-09-03T10:47:08.014Z,1015.1
2018-09-03T10:52:07.283Z,1015.1
2018-09-03T10:57:07.556Z,1014.9
2018-09-03T11:02:07.481Z,1014.9
2018-09-03T11:07:07.498Z,1014.8
2018-09-03T11:12:07.453Z,1014.9
2018-09-03T11:17:07.456Z,1015.1
2018-09-03T11:22:07.594Z,1015
2018-09-03T11:27:07.540Z,1015
2018-09-03T11:32:19.912Z,1014.8
2018-09-03T11:37:19.873Z,1014.8
2018-09-03T11:42:19.795Z,1014.7
2018-09-03T11:47:19.855Z,1014.7
2018-09-03T11:52:19.888Z,1014.4
2018-09-03T11:57:19.653Z,1014.3
2018-09-03T12:02:19.678Z,1014.2
2018-09-03T12:07:22.602Z,1014.2
2018-09-03T12:12:19.806Z,1014.2
2018-09-03T12:17:19.692Z,1014.1
2018-09-03T12:22:19.877Z,1014.2
2018-09-03T12:27:19.806Z,1014.1
2018-09-03T12:32:20.263Z,1014.2
2018-09-03T12:37:20.100Z,1014.1
2018-09-03T12:42:32.527Z,1014
2018-09-03T12:47:32.432Z,1014
2018-09-03T12:52:32.341Z,1014.1
2018-09-03T12:57:32.408Z,1014
2018-09-03T13:02:40.123Z,1013.8
2018-09-03T13:07:33.405Z,1013.8
2018-09-03T13:12:33.624Z,1013.7
2018-09-03T13:17:33.565Z,1013.7
2018-09-03T13:22:33.311Z,1013.6
2018-09-03T13:27:33.351Z,1013.6
2018-09-03T13:32:33.103Z,1013.6
2018-09-03T13:37:33.310Z,1013.5
2018-09-03T13:42:33.269Z,1013.5
2018-09-03T13:47:33.268Z,1013.5
2018-09-03T13:52:46.087Z,1013.4
2018-09-03T13:57:45.968Z,1013.3
2018-09-03T14:02:45.950Z,1013.4
2018-09-03T14:07:46.463Z,1013.2
2018-09-03T14:12:46.023Z,1013.4
2018-09-03T14:17:47.056Z,1013.3
2018-09-03T14:22:45.972Z,1013.3
2018-09-03T14:27:47.553Z,1013.3
2018-09-03T14:32:46.164Z,1013.3
2018-09-03T14:38:08.110Z,1013.3
2018-09-03T14:43:08.290Z,1013.4
2018-09-03T14:48:08.006Z,1013.4
2018-09-03T14:53:08.138Z,1013.3
2018-09-03T14:58:20.275Z,1013.3
2018-09-03T15:03:19.767Z,1013.3
2018-09-03T15:08:19.937Z,1013.3
2018-09-03T15:13:19.774Z,1013.3
2018-09-03T15:18:19.845Z,1013.3
2018-09-03T15:23:19.793Z,1013.3
2018-09-03T15:28:19.799Z,1013.3
2018-09-03T15:33:19.791Z,1013.2
2018-09-03T15:38:19.802Z,1013.4
2018-09-03T15:43:31.153Z,1013.4
2018-09-03T15:48:30.704Z,1013.3
2018-09-03T15:53:30.567Z,1013.4
2018-09-03T15:58:30.569Z,1013.3
2018-09-03T16:03:30.565Z,1013.4
2018-09-03T16:08:30.583Z,1013.5
2018-09-03T16:13:30.590Z,1013.5
2018-09-03T16:18:31.760Z,1013.5
2018-09-03T16:23:31.466Z,1013.5
2018-09-03T16:28:41.750Z,1013.5
2018-09-03T16:33:41.457Z,1013.5
2018-09-03T16:38:41.663Z,1013.5
2018-09-03T16:43:41.632Z,1013.6
2018-09-03T16:48:41.988Z,1013.7
2018-09-03T16:53:41.577Z,1013.8
2018-09-03T16:58:41.799Z,1013.8
2018-09-03T17:03:41.721Z,1013.8
2018-09-03T17:08:41.755Z,1013.9
2018-09-03T17:13:41.572Z,1013.9
2018-09-03T17:18:41.562Z,1014
2018-09-03T17:23:41.701Z,1014.1
2018-09-03T17:28:45.295Z,1014.1
2018-09-03T17:33:44.929Z,1014.1
2018-09-03T17:38:58.372Z,1014.1
2018-09-03T17:43:58.293Z,1014.1
2018-09-03T17:48:58.318Z,1014.2
2018-09-03T17:53:58.043Z,1014.1
2018-09-03T17:58:58.106Z,1014.2
2018-09-03T18:03:58.100Z,1014.3
2018-09-03T18:08:58.102Z,1014.4
2018-09-03T18:13:58.111Z,1014.4
2018-09-03T18:18:58.101Z,1014.5
2018-09-03T18:24:09.716Z,1014.4
2018-09-03T18:29:09.342Z,1014.5
2018-09-03T18:34:09.380Z,1014.6
2018-09-03T18:39:09.383Z,1014.8
2018-09-03T18:44:09.406Z,1014.9
2018-09-03T18:49:09.982Z,1014.9
2018-09-03T18:54:09.727Z,1014.9
2018-09-03T18:59:09.726Z,1014.9
2018-09-03T19:04:09.736Z,1014.9
2018-09-03T19:09:09.745Z,1014.9
2018-09-03T19:14:13.180Z,1015
2018-09-03T19:19:09.761Z,1015
2018-09-03T19:24:11.938Z,1015
2018-09-03T19:29:12.155Z,1015
2018-09-03T19:34:22.365Z,1015
2018-09-03T19:39:22.075Z,1014.9
2018-09-03T19:44:22.047Z,1014.9
2018-09-03T19:49:22.274Z,1014.8
2018-09-03T19:54:22.274Z,1014.9
2018-09-03T19:59:22.599Z,1014.7
2018-09-03T20:04:22.561Z,1014.7
2018-09-03T20:09:24.219Z,1014.7
2018-09-03T20:14:23.864Z,1014.8
2018-09-03T20:19:39.036Z,1014.6
2018-09-03T20:24:39.074Z,1014.5
2018-09-03T20:29:36.324Z,1014.5
2018-09-03T20:34:36.326Z,1014.5
2018-09-03T20:39:36.348Z,1014.6
2018-09-03T20:44:36.330Z,1014.7
2018-09-03T20:49:36.130Z,1014.6
2018-09-03T20:54:36.177Z,1014.6
2018-09-03T20:59:36.136Z,1014.7
2018-09-03T21:04:36.137Z,1014.6
2018-09-03T21:09:36.147Z,1014.7
2018-09-03T21:14:36.719Z,1014.7
2018-09-03T21:19:37.541Z,1014.7
2018-09-03T21:24:37.493Z,1014.8
2018-09-03T21:29:49.520Z,1014.8
2018-09-03T21:34:49.225Z,1014.8
2018-09-03T21:39:49.217Z,1014.8
2018-09-03T21:44:49.258Z,1014.8
2018-09-03T21:49:49.460Z,1014.7
2018-09-03T21:54:49.464Z,1014.7
2018-09-03T21:59:49.471Z,1014.6
2018-09-03T22:04:49.517Z,1014.6
2018-09-03T22:09:49.694Z,1014.6
2018-09-03T22:15:01.663Z,1014.5
2018-09-03T22:20:01.618Z,1014.6
2018-09-03T22:25:01.529Z,1014.6
2018-09-03T22:30:01.496Z,1014.6
2018-09-03T22:35:01.406Z,1014.5
2018-09-03T22:40:01.432Z,1014.6
2018-09-03T22:45:01.578Z,1014.6
2018-09-03T22:50:01.662Z,1014.6
2018-09-03T22:55:01.401Z,1014.5
2018-09-03T23:00:01.420Z,1014.4
2018-09-03T23:05:01.594Z,1014.4
2018-09-03T23:10:01.413Z,1014.4
2018-09-03T23:15:03.525Z,1014.3
2018-09-03T23:20:03.444Z,1014.3
2018-09-03T23:25:15.988Z,1014.3
2018-09-03T23:30:16.013Z,1014.3
2018-09-03T23:35:15.958Z,1014.3
2018-09-03T23:40:15.865Z,1014.3
2018-09-03T23:45:15.943Z,1014.3
2018-09-03T23:50:15.801Z,1014.3
2018-09-03T23:55:15.838Z,1014.2
